createdAt,value
2018-11-12T00:02:19.905Z,96.83
2018-11-12T00:04:49.737Z,96.70
2018-11-12T00:07:19.526Z,96.69
2018-11-12T00:09:49.260Z,96.82
2018-11-12T00:12:19.052Z,96.57
2018-11-12T00:14:49.017Z,96.79
2018-11-12T00:17:18.780Z,96.41
2018-11-12T00:19:48.612Z,96.18
2018-11-12T00:22:18.412Z,97.03
2018-11-12T00:24:48.196Z,96.60
2018-11-12T00:27:17.920Z,96.89
2018-11-12T00:29:47.801Z,97.48
2018-11-12T00:32:17.255Z,97.83
2018-11-12T00:34:47.056Z,97.78
2018-11-12T00:37:16.878Z,97.50
2018-11-12T00:39:46.865Z,97.28
2018-11-12T00:42:16.710Z,97.17
2018-11-12T00:44:46.483Z,97.42
2018-11-12T00:47:16.293Z,97.13
2018-11-12T00:49:46.053Z,97.28
2018-11-12T00:52:15.905Z,97.66
2018-11-12T00:54:45.669Z,97.37
2018-11-12T00:57:15.497Z,96.63
2018-11-12T00:59:45.401Z,97.18
2018-11-12T01:02:15.141Z,97.00
2018-11-12T01:04:44.877Z,96.60
2018-11-12T01:07:14.630Z,96.57
2018-11-12T01:09:44.458Z,96.60
2018-11-12T01:12:14.151Z,96.41
2018-11-12T01:14:43.905Z,96.50
2018-11-12T01:17:13.709Z,96.67
2018-11-12T01:19:43.545Z,96.33
2018-11-12T01:22:13.413Z,97.11
2018-11-12T01:24:43.193Z,96.65
2018-11-12T01:27:12.965Z,97.30
2018-11-12T01:29:42.743Z,97.53
2018-11-12T01:32:12.517Z,97.75
2018-11-12T01:34:42.350Z,97.64
2018-11-12T01:37:12.201Z,97.74
2018-11-12T01:39:42.003Z,98.19
2018-11-12T01:42:11.882Z,97.76
2018-11-12T01:44:41.641Z,97.39
2018-11-12T01:47:11.492Z,97.66
2018-11-12T01:49:41.307Z,97.76
2018-11-12T01:52:11.082Z,98.02
2018-11-12T01:54:40.925Z,98.65
2018-11-12T01:57:10.740Z,98.77
2018-11-12T01:59:40.553Z,98.11
2018-11-12T02:02:10.293Z,98.38
2018-11-12T02:04:40.050Z,97.94
2018-11-12T02:07:09.887Z,98.44
2018-11-12T02:09:39.756Z,98.25
2018-11-12T02:12:09.561Z,98.72
2018-11-12T02:14:39.454Z,98.31
2018-11-12T02:17:09.131Z,98.83
2018-11-12T02:19:38.969Z,98.86
2018-11-12T02:22:08.817Z,98.80
2018-11-12T02:24:38.636Z,98.89
2018-11-12T02:27:08.460Z,98.62
2018-11-12T02:29:38.272Z,98.71
2018-11-12T02:32:08.099Z,99.20
2018-11-12T02:34:37.940Z,99.26
2018-11-12T02:37:07.772Z,99.47
2018-11-12T02:39:37.561Z,99.61
2018-11-12T02:42:07.449Z,99.61
2018-11-12T02:44:37.276Z,99.50
2018-11-12T02:47:07.283Z,99.50
2018-11-12T02:49:37.037Z,99.13
2018-11-12T02:52:06.806Z,99.42
2018-11-12T02:54:36.492Z,99.52
2018-11-12T02:57:06.425Z,99.88
2018-11-12T02:59:36.145Z,99.85
2018-11-12T03:02:06.028Z,99.87
2018-11-12T03:04:35.778Z,100.00
2018-11-12T03:07:05.765Z,100.00
2018-11-12T03:09:35.504Z,100.00
2018-11-12T03:12:05.428Z,100.00
2018-11-12T03:14:35.132Z,100.00
2018-11-12T03:17:05.171Z,100.00
2018-11-12T03:19:34.817Z,100.00
2018-11-12T03:22:04.660Z,100.00
2018-11-12T03:24:34.439Z,100.00
2018-11-12T03:27:04.309Z,100.00
2018-11-12T03:29:34.036Z,100.00
2018-11-12T03:32:03.852Z,100.00
2018-11-12T03:34:33.671Z,100.00
2018-11-12T03:37:03.532Z,100.00
2018-11-12T03:39:33.323Z,100.00
2018-11-12T03:42:03.329Z,100.00
2018-11-12T03:44:33.152Z,100.00
2018-11-12T03:47:03.037Z,100.00
2018-11-12T03:49:32.836Z,100.00
2018-11-12T03:52:02.701Z,100.00
2018-11-12T03:54:32.562Z,100.00
2018-11-12T03:57:02.396Z,100.00
2018-11-12T03:59:32.200Z,100.00
2018-11-12T04:02:01.995Z,100.00
2018-11-12T04:04:31.756Z,100.00
2018-11-12T04:07:01.621Z,100.00
2018-11-12T04:09:31.443Z,100.00
2018-11-12T04:12:01.248Z,100.00
2018-11-12T04:14:31.151Z,100.00
2018-11-12T04:17:00.893Z,100.00
2018-11-12T04:19:30.864Z,100.00
2018-11-12T04:22:00.658Z,100.00
2018-11-12T04:24:30.446Z,100.00
2018-11-12T04:27:00.207Z,100.00
2018-11-12T04:29:29.994Z,100.00
2018-11-12T04:32:00.808Z,100.00
2018-11-12T04:34:30.588Z,100.00
2018-11-12T04:37:00.363Z,100.00
2018-11-12T04:39:30.136Z,100.00
2018-11-12T04:42:00.067Z,100.00
2018-11-12T04:44:29.846Z,100.00
2018-11-12T04:46:59.788Z,100.00
2018-11-12T04:49:29.699Z,100.00
2018-11-12T04:51:59.498Z,100.00
2018-11-12T04:54:29.268Z,100.00
2018-11-12T04:56:59.829Z,100.00
2018-11-12T04:59:29.594Z,100.00
2018-11-12T05:01:59.543Z,100.00
2018-11-12T05:04:29.296Z,100.00
2018-11-12T05:06:59.213Z,100.00
2018-11-12T05:09:29.444Z,100.00
2018-11-12T05:11:59.332Z,100.00
2018-11-12T05:14:29.144Z,100.00
2018-11-12T05:16:59.030Z,100.00
2018-11-12T05:19:28.932Z,100.00
2018-11-12T05:21:58.874Z,100.00
2018-11-12T05:24:28.624Z,100.00
2018-11-12T05:26:58.527Z,100.00
2018-11-12T05:29:28.327Z,100.00
2018-11-12T05:31:58.174Z,100.00
2018-11-12T05:34:28.048Z,100.00
2018-11-12T05:36:58.131Z,100.00
2018-11-12T05:39:27.964Z,100.00
2018-11-12T05:41:57.842Z,100.00
2018-11-12T05:44:27.664Z,100.00
2018-11-12T05:46:57.464Z,100.00
2018-11-12T05:49:27.833Z,100.00
2018-11-12T05:51:57.627Z,100.00
2018-11-12T05:54:27.433Z,100.00
2018-11-12T05:56:57.288Z,100.00
2018-11-12T05:59:27.092Z,100.00
2018-11-12T06:01:56.892Z,100.00
2018-11-12T06:04:26.777Z,100.00
2018-11-12T06:06:57.377Z,100.00
2018-11-12T06:09:27.164Z,100.00
2018-11-12T06:11:56.944Z,100.00
2018-11-12T06:14:26.790Z,100.00
2018-11-12T06:16:56.721Z,100.00
2018-11-12T06:19:26.473Z,100.00
2018-11-12T06:21:56.404Z,100.00
2018-11-12T06:24:26.221Z,100.00
2018-11-12T06:26:56.159Z,100.00
2018-11-12T06:29:26.051Z,100.00
2018-11-12T06:31:55.847Z,100.00
2018-11-12T06:34:25.615Z,100.00
2018-11-12T06:36:55.640Z,100.00
2018-11-12T06:39:25.287Z,100.00
2018-11-12T06:41:55.183Z,100.00
2018-11-12T06:44:24.995Z,100.00
2018-11-12T06:46:54.719Z,100.00
2018-11-12T06:49:24.487Z,100.00
2018-11-12T06:51:54.239Z,100.00
2018-11-12T06:54:24.040Z,99.62
2018-11-12T06:56:53.957Z,100.00
2018-11-12T06:59:23.771Z,99.20
2018-11-12T07:01:53.872Z,99.23
2018-11-12T07:04:23.603Z,98.39
2018-11-12T07:06:53.103Z,97.88
2018-11-12T07:09:22.761Z,95.99
2018-11-12T07:11:52.470Z,96.70
2018-11-12T07:14:22.207Z,96.90
2018-11-12T07:16:51.694Z,96.91
2018-11-12T07:19:21.413Z,97.00
2018-11-12T07:21:51.131Z,95.64
2018-11-12T07:24:20.855Z,94.62
2018-11-12T07:26:50.620Z,94.37
2018-11-12T07:29:20.366Z,91.23
2018-11-12T07:31:50.211Z,90.34
2018-11-12T07:34:20.051Z,89.37
2018-11-12T07:36:49.923Z,90.57
2018-11-12T07:39:19.746Z,90.49
2018-11-12T07:41:49.595Z,88.74
2018-11-12T07:44:19.404Z,86.75
2018-11-12T07:46:49.178Z,86.13
2018-11-12T07:49:18.957Z,85.97
2018-11-12T07:51:48.753Z,84.61
2018-11-12T07:54:18.722Z,83.87
2018-11-12T07:56:48.570Z,82.82
2018-11-12T07:59:18.427Z,81.67
2018-11-12T08:01:48.228Z,80.20
2018-11-12T08:04:17.922Z,78.39
2018-11-12T08:06:47.670Z,77.46
2018-11-12T08:09:17.689Z,77.37
2018-11-12T08:11:47.495Z,76.76
2018-11-12T08:14:17.510Z,75.75
2018-11-12T08:16:47.212Z,75.57
2018-11-12T08:19:16.914Z,74.50
2018-11-12T08:21:46.903Z,74.24
2018-11-12T08:24:16.777Z,73.27
2018-11-12T08:26:46.406Z,73.45
2018-11-12T08:29:16.399Z,73.12
2018-11-12T08:31:46.263Z,72.52
2018-11-12T08:34:16.062Z,72.26
2018-11-12T08:36:45.926Z,72.04
2018-11-12T08:39:15.738Z,71.52
2018-11-12T08:41:45.594Z,69.98
2018-11-12T08:44:15.381Z,70.64
2018-11-12T08:46:45.269Z,69.74
2018-11-12T08:49:15.087Z,69.68
2018-11-12T08:51:44.873Z,68.93
2018-11-12T08:54:14.627Z,69.36
2018-11-12T08:56:44.343Z,68.52
2018-11-12T08:59:14.120Z,67.85
2018-11-12T09:01:43.856Z,67.51
2018-11-12T09:04:13.719Z,67.61
2018-11-12T09:06:43.389Z,66.76
2018-11-12T09:09:13.848Z,66.49
2018-11-12T09:11:43.746Z,66.02
2018-11-12T09:14:13.534Z,66.20
2018-11-12T09:16:43.262Z,66.01
2018-11-12T09:19:12.918Z,66.77
2018-11-12T09:21:42.690Z,66.38
2018-11-12T09:24:12.492Z,66.80
2018-11-12T09:26:42.310Z,66.78
2018-11-12T09:29:12.147Z,65.89
2018-11-12T09:31:42.054Z,65.82
2018-11-12T09:34:11.793Z,65.72
2018-11-12T09:36:41.610Z,66.00
2018-11-12T09:39:12.481Z,64.92
2018-11-12T09:41:42.910Z,65.87
2018-11-12T09:44:12.681Z,65.34
2018-11-12T09:46:43.092Z,65.45
2018-11-12T09:49:12.897Z,64.78
2018-11-12T09:51:42.733Z,64.25
2018-11-12T09:54:12.513Z,64.86
2018-11-12T09:56:42.756Z,65.37
2018-11-12T09:59:12.474Z,64.90
2018-11-12T10:01:42.819Z,65.90
2018-11-12T10:04:12.843Z,65.78
2018-11-12T10:06:42.979Z,66.19
2018-11-12T10:09:16.034Z,67.30
2018-11-12T10:11:45.650Z,66.59
2018-11-12T10:14:16.193Z,66.85
2018-11-12T10:16:45.827Z,66.48
2018-11-12T10:19:13.554Z,66.08
2018-11-12T10:21:43.477Z,65.81
2018-11-12T10:24:13.329Z,65.34
2018-11-12T10:26:43.089Z,65.11
2018-11-12T10:29:12.965Z,65.17
2018-11-12T10:31:42.699Z,65.32
2018-11-12T10:34:12.634Z,65.77
2018-11-12T10:36:42.354Z,65.92
2018-11-12T10:39:12.172Z,64.59
2018-11-12T10:41:41.924Z,65.36
2018-11-12T10:44:11.779Z,65.15
2018-11-12T10:46:41.589Z,64.65
2018-11-12T10:49:11.452Z,64.28
2018-11-12T10:51:41.305Z,63.92
2018-11-12T10:54:11.134Z,65.22
2018-11-12T10:56:40.804Z,65.17
2018-11-12T10:59:10.595Z,65.51
2018-11-12T11:01:45.557Z,66.51
2018-11-12T11:04:21.440Z,66.66
2018-11-12T11:06:51.178Z,66.71
2018-11-12T11:09:20.989Z,66.95
2018-11-12T11:11:50.780Z,66.51
2018-11-12T11:14:20.728Z,67.34
2018-11-12T11:16:50.552Z,67.63
2018-11-12T11:19:20.428Z,68.53
2018-11-12T11:21:50.544Z,68.54
2018-11-12T11:24:20.432Z,68.90
2018-11-12T11:26:50.163Z,70.02
2018-11-12T11:29:19.872Z,69.93
2018-11-12T11:31:49.625Z,70.97
2018-11-12T11:34:19.539Z,71.22
2018-11-12T11:36:49.389Z,70.69
2018-11-12T11:39:19.258Z,70.55
2018-11-12T11:41:49.036Z,70.41
2018-11-12T11:44:18.865Z,70.81
2018-11-12T11:46:48.618Z,70.36
2018-11-12T11:49:18.408Z,70.33
2018-11-12T11:51:48.226Z,69.87
2018-11-12T11:54:18.004Z,69.19
2018-11-12T11:56:47.967Z,68.63
2018-11-12T11:59:17.780Z,68.58
2018-11-12T12:01:47.691Z,67.89
2018-11-12T12:04:17.419Z,67.26
2018-11-12T12:06:47.272Z,67.30
2018-11-12T12:09:17.168Z,67.06
2018-11-12T12:11:46.892Z,66.21
2018-11-12T12:14:16.733Z,66.17
2018-11-12T12:16:46.576Z,66.03
2018-11-12T12:19:16.505Z,66.17
2018-11-12T12:21:47.310Z,66.16
2018-11-12T12:24:18.075Z,66.21
2018-11-12T12:26:48.021Z,65.84
2018-11-12T12:29:18.361Z,66.26
2018-11-12T12:31:48.165Z,66.38
2018-11-12T12:34:18.065Z,66.91
2018-11-12T12:36:47.894Z,66.53
2018-11-12T12:39:17.740Z,67.53
2018-11-12T12:41:47.583Z,67.57
2018-11-12T12:44:17.507Z,67.60
2018-11-12T12:46:47.431Z,67.41
2018-11-12T12:49:17.417Z,67.71
2018-11-12T12:51:47.320Z,67.56
2018-11-12T12:54:17.053Z,67.87
2018-11-12T12:56:46.849Z,68.11
2018-11-12T12:59:16.729Z,68.43
2018-11-12T13:01:46.706Z,68.42
2018-11-12T13:04:16.423Z,68.35
2018-11-12T13:06:46.352Z,68.87
2018-11-12T13:09:16.174Z,68.30
2018-11-12T13:11:45.950Z,68.53
2018-11-12T13:14:15.981Z,68.07
2018-11-12T13:16:45.604Z,68.57
2018-11-12T13:19:15.396Z,68.28
2018-11-12T13:21:45.219Z,68.50
2018-11-12T13:24:14.984Z,68.37
2018-11-12T13:26:44.797Z,68.08
2018-11-12T13:29:14.599Z,67.54
2018-11-12T13:31:44.394Z,67.81
2018-11-12T13:34:14.095Z,68.11
2018-11-12T13:36:44.064Z,68.08
2018-11-12T13:39:14.252Z,68.11
2018-11-12T13:41:44.100Z,68.63
2018-11-12T13:44:13.876Z,68.67
2018-11-12T13:46:49.540Z,68.94
2018-11-12T13:49:19.320Z,69.78
2018-11-12T13:51:49.028Z,70.18
2018-11-12T13:54:19.511Z,70.57
2018-11-12T13:56:49.315Z,71.09
2018-11-12T13:59:19.176Z,70.68
2018-11-12T14:01:48.611Z,70.49
2018-11-12T14:04:18.357Z,69.99
2018-11-12T14:06:48.256Z,70.16
2018-11-12T14:09:18.054Z,69.41
2018-11-12T14:11:47.834Z,69.55
2018-11-12T14:14:17.736Z,69.76
2018-11-12T14:16:47.508Z,70.42
2018-11-12T14:19:17.420Z,70.62
2018-11-12T14:21:47.222Z,70.37
2018-11-12T14:24:17.057Z,70.21
2018-11-12T14:26:46.843Z,70.74
2018-11-12T14:29:16.779Z,71.28
2018-11-12T14:31:46.652Z,70.86
2018-11-12T14:34:19.861Z,70.96
2018-11-12T14:36:50.093Z,71.37
2018-11-12T14:39:20.915Z,71.49
2018-11-12T14:41:51.683Z,72.00
2018-11-12T14:44:21.505Z,71.98
2018-11-12T14:46:51.292Z,72.10
2018-11-12T14:49:21.153Z,72.51
2018-11-12T14:51:51.084Z,73.17
2018-11-12T14:54:21.064Z,73.71
2018-11-12T14:56:52.128Z,74.39
2018-11-12T14:59:22.011Z,74.53
2018-11-12T15:01:52.090Z,74.57
2018-11-12T15:04:21.906Z,74.69
2018-11-12T15:06:52.208Z,75.82
2018-11-12T15:09:22.037Z,75.90
2018-11-12T15:11:52.249Z,76.76
2018-11-12T15:14:22.124Z,77.21
2018-11-12T15:16:52.184Z,77.83
2018-11-12T15:19:21.997Z,78.43
2018-11-12T15:21:51.982Z,80.25
2018-11-12T15:24:21.805Z,80.09
2018-11-12T15:26:51.507Z,80.23
2018-11-12T15:29:21.401Z,80.80
2018-11-12T15:31:51.236Z,81.91
2018-11-12T15:34:21.091Z,81.47
2018-11-12T15:36:51.064Z,81.95
2018-11-12T15:39:20.811Z,82.17
2018-11-12T15:41:50.655Z,82.33
2018-11-12T15:44:20.771Z,82.20
2018-11-12T15:46:51.405Z,81.76
2018-11-12T15:49:21.389Z,81.89
2018-11-12T15:51:52.731Z,81.57
2018-11-12T15:54:22.745Z,81.83
2018-11-12T15:56:52.730Z,82.08
2018-11-12T15:59:22.641Z,82.99
2018-11-12T16:01:52.408Z,83.03
2018-11-12T16:04:22.296Z,83.16
2018-11-12T16:06:52.145Z,82.99
2018-11-12T16:09:22.127Z,83.01
2018-11-12T16:11:52.015Z,83.57
2018-11-12T16:14:21.974Z,82.79
2018-11-12T16:16:51.773Z,82.30
2018-11-12T16:19:21.761Z,81.78
2018-11-12T16:21:51.699Z,81.53
2018-11-12T16:24:21.561Z,81.19
2018-11-12T16:26:51.467Z,80.58
2018-11-12T16:29:21.343Z,81.32
2018-11-12T16:31:51.259Z,82.29
2018-11-12T16:34:21.053Z,82.55
2018-11-12T16:36:50.980Z,80.67
2018-11-12T16:39:20.975Z,81.13
2018-11-12T16:41:51.012Z,81.25
2018-11-12T16:44:21.010Z,83.04
2018-11-12T16:46:51.045Z,84.42
2018-11-12T16:49:21.146Z,84.52
2018-11-12T16:51:51.152Z,85.37
2018-11-12T16:54:21.158Z,85.38
2018-11-12T16:56:51.113Z,85.40
2018-11-12T16:59:20.990Z,86.13
2018-11-12T17:01:50.912Z,86.43
2018-11-12T17:04:20.995Z,86.37
2018-11-12T17:06:50.919Z,86.35
2018-11-12T17:09:20.731Z,86.67
2018-11-12T17:11:55.008Z,86.95
2018-11-12T17:14:24.792Z,86.78
2018-11-12T17:17:01.380Z,86.97
2018-11-12T17:19:31.416Z,87.16
2018-11-12T17:22:01.417Z,87.62
2018-11-12T17:24:31.454Z,87.72
2018-11-12T17:27:01.755Z,87.76
2018-11-12T17:29:32.954Z,88.27
2018-11-12T17:32:04.540Z,88.75
2018-11-12T17:34:35.434Z,88.85
2018-11-12T17:37:07.882Z,88.75
2018-11-12T17:39:41.541Z,88.90
2018-11-12T17:42:12.107Z,88.25
2018-11-12T17:44:43.559Z,88.69
2018-11-12T17:47:14.131Z,88.00
2018-11-12T17:50:04.559Z,88.52
2018-11-12T17:52:51.602Z,89.32
2018-11-12T17:55:35.543Z,88.01
2018-11-12T18:01:13.320Z,88.22
2018-11-12T18:03:48.023Z,87.54
2018-11-12T18:06:18.002Z,87.17
2018-11-12T18:08:48.161Z,87.23
2018-11-12T18:11:18.511Z,86.90
2018-11-12T18:13:48.944Z,86.69
2018-11-12T18:16:19.255Z,86.91
2018-11-12T18:18:49.369Z,86.51
2018-11-12T18:21:20.815Z,86.14
2018-11-12T18:23:53.081Z,85.62
2018-11-12T18:26:24.386Z,85.61
2018-11-12T18:28:55.653Z,84.63
2018-11-12T18:31:26.185Z,84.72
2018-11-12T18:33:56.231Z,84.51
2018-11-12T18:36:26.546Z,84.46
2018-11-12T18:38:56.866Z,84.47
2018-11-12T18:41:32.981Z,84.22
2018-11-12T18:44:03.367Z,85.12
2018-11-12T18:46:35.114Z,85.70
2018-11-12T18:49:10.566Z,85.86
2018-11-12T18:51:41.183Z,86.10
2018-11-12T18:54:11.615Z,86.16
2018-11-12T18:56:42.525Z,86.39
2018-11-12T18:59:12.927Z,86.17
2018-11-12T19:01:44.722Z,86.45
2018-11-12T19:04:18.592Z,86.57
2018-11-12T19:06:48.840Z,86.79
2018-11-12T19:09:19.116Z,86.36
2018-11-12T19:11:49.112Z,86.25
2018-11-12T19:14:19.232Z,86.22
2018-11-12T19:16:49.196Z,86.74
2018-11-12T19:19:19.036Z,86.96
2018-11-12T19:21:48.936Z,87.02
2018-11-12T19:24:18.892Z,86.70
2018-11-12T19:26:48.726Z,86.74
2018-11-12T19:29:18.562Z,86.71
2018-11-12T19:31:49.364Z,87.01
2018-11-12T19:34:19.384Z,87.03
2018-11-12T19:36:49.428Z,87.26
2018-11-12T19:39:19.332Z,86.85
2018-11-12T19:41:49.468Z,86.98
2018-11-12T19:44:19.745Z,87.08
2018-11-12T19:46:50.150Z,86.93
2018-11-12T19:49:19.996Z,87.11
2018-11-12T19:51:50.159Z,87.37
2018-11-12T19:54:19.983Z,87.44
2018-11-12T19:56:49.836Z,87.24
2018-11-12T19:59:19.737Z,87.24
2018-11-12T20:01:49.728Z,86.85
2018-11-12T20:04:19.569Z,86.75
2018-11-12T20:06:49.092Z,86.83
2018-11-12T20:09:18.971Z,86.62
2018-11-12T20:11:48.901Z,86.98
2018-11-12T20:14:18.834Z,86.49
2018-11-12T20:16:48.803Z,86.27
2018-11-12T20:19:18.874Z,86.44
2018-11-12T20:21:49.003Z,86.36
2018-11-12T20:24:18.974Z,86.59
2018-11-12T20:26:48.883Z,86.78
2018-11-12T20:29:18.985Z,86.84
2018-11-12T20:31:48.959Z,86.72
2018-11-12T20:34:18.913Z,87.13
2018-11-12T20:36:49.369Z,86.33
2018-11-12T20:39:19.351Z,86.72
2018-11-12T20:41:49.567Z,86.22
2018-11-12T20:44:19.930Z,86.51
2018-11-12T20:46:50.213Z,86.18
2018-11-12T20:49:21.417Z,86.69
2018-11-12T20:51:51.420Z,86.42
2018-11-12T20:54:22.732Z,85.98
2018-11-12T20:56:52.720Z,85.84
2018-11-12T20:59:22.801Z,86.27
2018-11-12T21:01:53.029Z,85.99
2018-11-12T21:04:23.089Z,86.58
2018-11-12T21:06:53.081Z,86.38
2018-11-12T21:09:23.185Z,86.41
2018-11-12T21:11:53.542Z,86.86
2018-11-12T21:14:23.599Z,86.35
2018-11-12T21:16:53.615Z,86.24
2018-11-12T21:19:23.622Z,85.32
2018-11-12T21:21:53.724Z,85.91
2018-11-12T21:24:23.783Z,85.88
2018-11-12T21:26:53.770Z,86.33
2018-11-12T21:29:23.697Z,86.76
2018-11-12T21:31:53.813Z,86.23
2018-11-12T21:34:24.242Z,85.94
2018-11-12T21:36:54.304Z,86.42
2018-11-12T21:39:24.956Z,85.77
2018-11-12T21:41:54.909Z,85.79
2018-11-12T21:44:24.731Z,86.27
2018-11-12T21:46:54.630Z,86.84
2018-11-12T21:49:24.775Z,86.51
2018-11-12T21:51:54.743Z,87.31
2018-11-12T21:54:25.369Z,87.32
2018-11-12T21:56:56.471Z,86.94
2018-11-12T21:59:26.569Z,87.11
2018-11-12T22:01:56.572Z,87.41
2018-11-12T22:04:27.194Z,86.83
2018-11-12T22:06:57.389Z,87.17
2018-11-12T22:09:27.255Z,86.95
2018-11-12T22:11:57.145Z,86.82
2018-11-12T22:14:27.112Z,87.15
2018-11-12T22:16:57.127Z,87.35
2018-11-12T22:19:27.129Z,87.13
2018-11-12T22:21:56.938Z,87.29
2018-11-12T22:24:27.809Z,87.19
2018-11-12T22:26:57.737Z,86.73
2018-11-12T22:29:27.763Z,87.39
2018-11-12T22:31:57.737Z,87.44
2018-11-12T22:34:27.404Z,87.52
2018-11-12T22:36:57.474Z,87.56
2018-11-12T22:39:27.522Z,86.95
2018-11-12T22:41:57.561Z,87.53
2018-11-12T22:44:27.849Z,87.30
2018-11-12T22:46:57.757Z,87.94
2018-11-12T22:49:27.964Z,87.80
2018-11-12T22:51:58.337Z,88.56
2018-11-12T22:54:28.375Z,87.97
2018-11-12T22:56:58.396Z,87.96
2018-11-12T22:59:28.257Z,88.03
2018-11-12T23:01:58.596Z,88.53
2018-11-12T23:04:28.580Z,88.68
2018-11-12T23:06:58.421Z,88.63
2018-11-12T23:09:28.199Z,88.35
2018-11-12T23:11:58.057Z,88.36
2018-11-12T23:14:27.872Z,88.13
2018-11-12T23:16:58.162Z,88.66
2018-11-12T23:19:27.829Z,87.95
2018-11-12T23:21:58.041Z,88.01
2018-11-12T23:24:27.468Z,87.99
2018-11-12T23:26:58.106Z,87.96
2018-11-12T23:29:28.491Z,87.93
2018-11-12T23:31:58.926Z,87.92
2018-11-12T23:34:29.200Z,88.23
2018-11-12T23:36:59.557Z,87.82
2018-11-12T23:39:29.392Z,87.80
2018-11-12T23:41:59.461Z,88.36
2018-11-12T23:44:30.238Z,88.54
2018-11-12T23:47:00.997Z,88.58
2018-11-12T23:49:30.870Z,88.40
2018-11-12T23:52:01.082Z,87.90
2018-11-12T23:54:31.008Z,87.90
2018-11-12T23:57:00.896Z,87.96
2018-11-12T23:59:30.861Z,88.08
